sensor_id;sensor_type;location;lat;lon;timestamp;temperature;humidity
40670;DHT22;26355;45.528;9.234;2023-01-30T00:00:21;8.10;99.90
40670;DHT22;26355;45.528;9.234;2023-01-30T00:02:47;7.90;99.90
40670;DHT22;26355;45.528;9.234;2023-01-30T00:05:12;10.40;99.90
40670;DHT22;26355;45.528;9.234;2023-01-30T00:07:38;8.20;99.90
40670;DHT22;26355;45.528;9.234;2023-01-30T00:10:04;7.40;99.90
40670;DHT22;26355;45.528;9.234;2023-01-30T00:12:29;8.00;99.90
40670;DHT22;26355;45.528;9.234;2023-01-30T00:14:55;8.70;99.90
40670;DHT22;26355;45.528;9.234;2023-01-30T00:17:20;7.10;99.90
40670;DHT22;26355;45.528;9.234;2023-01-30T00:19:46;7.40;99.90
40670;DHT22;26355;45.528;9.234;2023-01-30T00:22:11;6.70;99.90
40670;DHT22;26355;45.528;9.234;2023-01-30T00:24:37;7.50;99.90
40670;DHT22;26355;45.528;9.234;2023-01-30T00:27:02;8.10;99.90
40670;DHT22;26355;45.528;9.234;2023-01-30T00:29:28;7.90;99.90
40670;DHT22;26355;45.528;9.234;2023-01-30T00:31:54;8.40;99.90
40670;DHT22;26355;45.528;9.234;2023-01-30T00:34:19;7.50;99.90
40670;DHT22;26355;45.528;9.234;2023-01-30T00:36:45;7.50;99.90
40670;DHT22;26355;45.528;9.234;2023-01-30T00:39:10;7.50;99.90
40670;DHT22;26355;45.528;9.234;2023-01-30T00:41:36;7.10;99.90
40670;DHT22;26355;45.528;9.234;2023-01-30T00:44:30;7.00;99.90
40670;DHT22;26355;45.528;9.234;2023-01-30T00:47:15;7.30;99.90
40670;DHT22;26355;45.528;9.234;2023-01-30T00:49:40;7.10;99.90
40670;DHT22;26355;45.528;9.234;2023-01-30T00:52:06;6.20;99.90
40670;DHT22;26355;45.528;9.234;2023-01-30T00:54:32;7.60;99.90
40670;DHT22;26355;45.528;9.234;2023-01-30T00:56:58;7.80;99.90
40670;DHT22;26355;45.528;9.234;2023-01-30T00:59:25;6.30;99.90
40670;DHT22;26355;45.528;9.234;2023-01-30T01:01:51;7.00;99.90
40670;DHT22;26355;45.528;9.234;2023-01-30T01:04:16;8.30;99.90
40670;DHT22;26355;45.528;9.234;2023-01-30T01:06:42;8.00;99.90
40670;DHT22;26355;45.528;9.234;2023-01-30T01:09:07;6.60;99.90
40670;DHT22;26355;45.528;9.234;2023-01-30T01:11:33;6.70;99.90
40670;DHT22;26355;45.528;9.234;2023-01-30T01:14:00;7.10;99.90
40670;DHT22;26355;45.528;9.234;2023-01-30T01:16:28;5.80;99.90
40670;DHT22;26355;45.528;9.234;2023-01-30T01:18:54;7.90;99.90
40670;DHT22;26355;45.528;9.234;2023-01-30T01:21:20;6.60;99.90
40670;DHT22;26355;45.528;9.234;2023-01-30T01:23:50;10.50;99.90
40670;DHT22;26355;45.528;9.234;2023-01-30T01:26:16;6.70;99.90
40670;DHT22;26355;45.528;9.234;2023-01-30T01:28:42;6.30;99.90
40670;DHT22;26355;45.528;9.234;2023-01-30T01:31:13;5.60;99.90
40670;DHT22;26355;45.528;9.234;2023-01-30T01:33:39;7.00;99.90
40670;DHT22;26355;45.528;9.234;2023-01-30T01:36:06;7.00;99.90
40670;DHT22;26355;45.528;9.234;2023-01-30T01:38:32;6.00;99.90
40670;DHT22;26355;45.528;9.234;2023-01-30T01:40:57;8.00;99.90
40670;DHT22;26355;45.528;9.234;2023-01-30T01:44:07;6.80;99.90
40670;DHT22;26355;45.528;9.234;2023-01-30T01:51:57;7.90;99.90
40670;DHT22;26355;45.528;9.234;2023-01-30T01:54:32;7.60;99.90
40670;DHT22;26355;45.528;9.234;2023-01-30T01:57:02;7.20;99.90
40670;DHT22;26355;45.528;9.234;2023-01-30T01:59:35;5.80;99.90
40670;DHT22;26355;45.528;9.234;2023-01-30T02:02:06;7.30;99.90
40670;DHT22;26355;45.528;9.234;2023-01-30T02:04:34;7.10;99.90
40670;DHT22;26355;45.528;9.234;2023-01-30T02:07:20;8.60;99.90
40670;DHT22;26355;45.528;9.234;2023-01-30T02:09:46;7.20;99.90
40670;DHT22;26355;45.528;9.234;2023-01-30T02:12:13;7.80;99.90
40670;DHT22;26355;45.528;9.234;2023-01-30T02:14:39;7.20;99.90
40670;DHT22;26355;45.528;9.234;2023-01-30T02:17:05;7.00;99.90
40670;DHT22;26355;45.528;9.234;2023-01-30T02:38:56;6.70;99.90
40670;DHT22;26355;45.528;9.234;2023-01-30T02:41:47;7.40;99.90
40670;DHT22;26355;45.528;9.234;2023-01-30T02:46:57;5.80;99.90
40670;DHT22;26355;45.528;9.234;2023-01-30T02:49:44;6.40;99.90
40670;DHT22;26355;45.528;9.234;2023-01-30T02:52:11;7.10;99.90
40670;DHT22;26355;45.528;9.234;2023-01-30T02:54:38;5.80;99.90
40670;DHT22;26355;45.528;9.234;2023-01-30T02:57:20;6.90;99.90
40670;DHT22;26355;45.528;9.234;2023-01-30T02:59:48;6.80;99.90
40670;DHT22;26355;45.528;9.234;2023-01-30T03:05:45;6.10;99.90
40670;DHT22;26355;45.528;9.234;2023-01-30T03:13:28;6.10;99.90
40670;DHT22;26355;45.528;9.234;2023-01-30T03:18:43;5.90;99.90
40670;DHT22;26355;45.528;9.234;2023-01-30T03:21:10;6.60;99.90
40670;DHT22;26355;45.528;9.234;2023-01-30T03:23:39;6.20;99.90
40670;DHT22;26355;45.528;9.234;2023-01-30T03:26:09;4.60;99.90
40670;DHT22;26355;45.528;9.234;2023-01-30T03:28:35;5.00;99.90
40670;DHT22;26355;45.528;9.234;2023-01-30T03:31:01;5.50;99.90
40670;DHT22;26355;45.528;9.234;2023-01-30T03:33:27;5.70;99.90
40670;DHT22;26355;45.528;9.234;2023-01-30T03:35:52;8.50;99.90
40670;DHT22;26355;45.528;9.234;2023-01-30T03:38:18;5.50;99.90
40670;DHT22;26355;45.528;9.234;2023-01-30T03:40:44;3.70;99.90
40670;DHT22;26355;45.528;9.234;2023-01-30T03:43:10;5.80;99.90
40670;DHT22;26355;45.528;9.234;2023-01-30T03:45:35;7.70;99.90
40670;DHT22;26355;45.528;9.234;2023-01-30T03:48:01;6.50;99.90
40670;DHT22;26355;45.528;9.234;2023-01-30T03:50:26;5.70;99.90
40670;DHT22;26355;45.528;9.234;2023-01-30T03:52:53;5.90;99.90
40670;DHT22;26355;45.528;9.234;2023-01-30T03:55:19;7.10;99.90
40670;DHT22;26355;45.528;9.234;2023-01-30T03:57:45;6.10;99.90
40670;DHT22;26355;45.528;9.234;2023-01-30T04:00:11;6.70;99.90
40670;DHT22;26355;45.528;9.234;2023-01-30T04:02:36;5.80;99.90
40670;DHT22;26355;45.528;9.234;2023-01-30T04:05:03;7.10;99.90
40670;DHT22;26355;45.528;9.234;2023-01-30T04:07:29;5.60;99.90
40670;DHT22;26355;45.528;9.234;2023-01-30T04:09:55;5.00;99.90
40670;DHT22;26355;45.528;9.234;2023-01-30T04:12:20;6.10;99.90
40670;DHT22;26355;45.528;9.234;2023-01-30T04:14:46;5.60;99.90
40670;DHT22;26355;45.528;9.234;2023-01-30T04:17:11;5.00;99.90
40670;DHT22;26355;45.528;9.234;2023-01-30T04:19:37;6.30;99.90
40670;DHT22;26355;45.528;9.234;2023-01-30T04:22:03;6.60;99.90
40670;DHT22;26355;45.528;9.234;2023-01-30T04:24:28;6.00;99.90
40670;DHT22;26355;45.528;9.234;2023-01-30T04:26:54;5.30;99.90
40670;DHT22;26355;45.528;9.234;2023-01-30T04:29:19;6.30;99.90
40670;DHT22;26355;45.528;9.234;2023-01-30T04:31:45;5.40;99.90
40670;DHT22;26355;45.528;9.234;2023-01-30T04:34:10;4.90;99.90
40670;DHT22;26355;45.528;9.234;2023-01-30T04:36:36;6.50;99.90
40670;DHT22;26355;45.528;9.234;2023-01-30T04:39:02;5.70;99.90
40670;DHT22;26355;45.528;9.234;2023-01-30T04:41:27;4.80;99.90
40670;DHT22;26355;45.528;9.234;2023-01-30T04:43:53;4.90;99.90
40670;DHT22;26355;45.528;9.234;2023-01-30T04:46:19;5.20;99.90
40670;DHT22;26355;45.528;9.234;2023-01-30T04:48:44;5.70;99.90
40670;DHT22;26355;45.528;9.234;2023-01-30T04:51:10;5.00;99.90
40670;DHT22;26355;45.528;9.234;2023-01-30T04:53:35;7.20;99.90
40670;DHT22;26355;45.528;9.234;2023-01-30T04:56:01;4.30;99.90
40670;DHT22;26355;45.528;9.234;2023-01-30T04:58:27;5.00;99.90
40670;DHT22;26355;45.528;9.234;2023-01-30T05:00:52;4.90;99.90
40670;DHT22;26355;45.528;9.234;2023-01-30T05:03:18;5.00;99.90
40670;DHT22;26355;45.528;9.234;2023-01-30T05:05:47;6.50;99.90
40670;DHT22;26355;45.528;9.234;2023-01-30T05:08:14;5.30;99.90
40670;DHT22;26355;45.528;9.234;2023-01-30T05:10:39;6.40;99.90
40670;DHT22;26355;45.528;9.234;2023-01-30T05:13:06;6.50;99.90
40670;DHT22;26355;45.528;9.234;2023-01-30T05:15:32;5.10;99.90
40670;DHT22;26355;45.528;9.234;2023-01-30T05:17:58;6.60;99.90
40670;DHT22;26355;45.528;9.234;2023-01-30T05:20:24;4.70;99.90
40670;DHT22;26355;45.528;9.234;2023-01-30T05:22:50;5.10;99.90
40670;DHT22;26355;45.528;9.234;2023-01-30T05:25:15;6.40;99.90
40670;DHT22;26355;45.528;9.234;2023-01-30T05:27:41;4.90;99.90
40670;DHT22;26355;45.528;9.234;2023-01-30T05:30:07;5.70;99.90
40670;DHT22;26355;45.528;9.234;2023-01-30T05:32:33;3.30;99.90
40670;DHT22;26355;45.528;9.234;2023-01-30T05:34:59;5.80;99.90
40670;DHT22;26355;45.528;9.234;2023-01-30T05:37:24;6.70;99.90
40670;DHT22;26355;45.528;9.234;2023-01-30T05:39:50;7.50;99.90
40670;DHT22;26355;45.528;9.234;2023-01-30T05:42:16;7.20;99.90
40670;DHT22;26355;45.528;9.234;2023-01-30T05:44:41;5.60;99.90
40670;DHT22;26355;45.528;9.234;2023-01-30T05:47:07;5.50;99.90
40670;DHT22;26355;45.528;9.234;2023-01-30T05:49:32;3.20;99.90
40670;DHT22;26355;45.528;9.234;2023-01-30T05:51:58;5.30;99.90
40670;DHT22;26355;45.528;9.234;2023-01-30T05:54:24;6.80;99.90
40670;DHT22;26355;45.528;9.234;2023-01-30T05:56:49;3.20;99.90
40670;DHT22;26355;45.528;9.234;2023-01-30T05:59:15;5.40;99.90
40670;DHT22;26355;45.528;9.234;2023-01-30T06:01:42;6.00;99.90
40670;DHT22;26355;45.528;9.234;2023-01-30T06:04:08;7.10;99.90
40670;DHT22;26355;45.528;9.234;2023-01-30T06:06:33;5.30;99.90
40670;DHT22;26355;45.528;9.234;2023-01-30T06:08:59;5.70;99.90
40670;DHT22;26355;45.528;9.234;2023-01-30T06:11:24;6.50;99.90
40670;DHT22;26355;45.528;9.234;2023-01-30T06:13:50;6.00;99.90
40670;DHT22;26355;45.528;9.234;2023-01-30T06:16:17;6.90;99.90
40670;DHT22;26355;45.528;9.234;2023-01-30T06:18:43;5.20;99.90
40670;DHT22;26355;45.528;9.234;2023-01-30T06:21:12;5.90;99.90
40670;DHT22;26355;45.528;9.234;2023-01-30T06:23:38;5.70;99.90
40670;DHT22;26355;45.528;9.234;2023-01-30T06:26:03;5.90;99.90
40670;DHT22;26355;45.528;9.234;2023-01-30T06:28:29;6.30;99.90
40670;DHT22;26355;45.528;9.234;2023-01-30T06:30:55;5.70;99.90
40670;DHT22;26355;45.528;9.234;2023-01-30T06:33:20;7.30;99.90
40670;DHT22;26355;45.528;9.234;2023-01-30T06:35:49;6.70;99.90
40670;DHT22;26355;45.528;9.234;2023-01-30T06:38:15;5.40;99.90
40670;DHT22;26355;45.528;9.234;2023-01-30T06:40:44;6.00;99.90
40670;DHT22;26355;45.528;9.234;2023-01-30T06:43:09;5.20;99.90
40670;DHT22;26355;45.528;9.234;2023-01-30T06:45:35;7.40;99.90
40670;DHT22;26355;45.528;9.234;2023-01-30T06:48:01;6.30;99.90
40670;DHT22;26355;45.528;9.234;2023-01-30T06:50:27;5.50;99.90
40670;DHT22;26355;45.528;9.234;2023-01-30T06:52:54;6.60;99.90
40670;DHT22;26355;45.528;9.234;2023-01-30T06:55:22;7.00;99.90
40670;DHT22;26355;45.528;9.234;2023-01-30T06:57:48;8.00;99.90
40670;DHT22;26355;45.528;9.234;2023-01-30T07:00:16;6.20;99.90
40670;DHT22;26355;45.528;9.234;2023-01-30T07:02:42;7.70;99.90
40670;DHT22;26355;45.528;9.234;2023-01-30T07:05:08;8.80;99.90
40670;DHT22;26355;45.528;9.234;2023-01-30T07:07:35;7.20;99.90
40670;DHT22;26355;45.528;9.234;2023-01-30T07:10:02;6.40;99.90
40670;DHT22;26355;45.528;9.234;2023-01-30T07:12:27;8.10;99.90
40670;DHT22;26355;45.528;9.234;2023-01-30T07:14:53;6.50;99.90
40670;DHT22;26355;45.528;9.234;2023-01-30T07:17:19;8.50;99.90
40670;DHT22;26355;45.528;9.234;2023-01-30T07:19:45;6.50;99.90
40670;DHT22;26355;45.528;9.234;2023-01-30T07:22:12;7.10;99.90
40670;DHT22;26355;45.528;9.234;2023-01-30T07:24:38;6.10;99.90
40670;DHT22;26355;45.528;9.234;2023-01-30T07:27:06;6.60;99.90
40670;DHT22;26355;45.528;9.234;2023-01-30T07:29:34;8.30;99.90
40670;DHT22;26355;45.528;9.234;2023-01-30T07:31:59;6.60;99.90
40670;DHT22;26355;45.528;9.234;2023-01-30T07:34:25;7.90;99.90
40670;DHT22;26355;45.528;9.234;2023-01-30T07:36:51;7.40;99.90
40670;DHT22;26355;45.528;9.234;2023-01-30T07:39:16;7.80;99.90
40670;DHT22;26355;45.528;9.234;2023-01-30T07:41:42;6.40;99.90
40670;DHT22;26355;45.528;9.234;2023-01-30T07:44:07;4.10;99.90
40670;DHT22;26355;45.528;9.234;2023-01-30T07:46:33;7.70;99.90
40670;DHT22;26355;45.528;9.234;2023-01-30T07:49:06;6.40;99.90
40670;DHT22;26355;45.528;9.234;2023-01-30T07:51:36;8.20;99.90
40670;DHT22;26355;45.528;9.234;2023-01-30T07:54:01;7.70;99.90
40670;DHT22;26355;45.528;9.234;2023-01-30T07:56:29;7.70;99.90
40670;DHT22;26355;45.528;9.234;2023-01-30T07:58:54;7.50;99.90
40670;DHT22;26355;45.528;9.234;2023-01-30T08:01:20;6.50;99.90
40670;DHT22;26355;45.528;9.234;2023-01-30T08:03:46;6.40;99.90
40670;DHT22;26355;45.528;9.234;2023-01-30T08:06:14;7.00;99.90
40670;DHT22;26355;45.528;9.234;2023-01-30T08:08:40;7.20;99.90
40670;DHT22;26355;45.528;9.234;2023-01-30T08:11:06;8.60;99.90
40670;DHT22;26355;45.528;9.234;2023-01-30T08:13:31;6.80;99.90
40670;DHT22;26355;45.528;9.234;2023-01-30T08:16:05;7.30;99.90
40670;DHT22;26355;45.528;9.234;2023-01-30T08:18:32;7.30;99.90
40670;DHT22;26355;45.528;9.234;2023-01-30T08:20:59;7.60;99.90
40670;DHT22;26355;45.528;9.234;2023-01-30T08:23:25;7.50;99.90
40670;DHT22;26355;45.528;9.234;2023-01-30T08:25:59;8.10;99.90
40670;DHT22;26355;45.528;9.234;2023-01-30T08:28:25;7.70;99.90
40670;DHT22;26355;45.528;9.234;2023-01-30T08:30:51;8.10;99.90
40670;DHT22;26355;45.528;9.234;2023-01-30T08:33:19;7.00;99.90
40670;DHT22;26355;45.528;9.234;2023-01-30T08:35:45;7.70;99.90
40670;DHT22;26355;45.528;9.234;2023-01-30T08:38:11;7.60;99.90
40670;DHT22;26355;45.528;9.234;2023-01-30T08:40:37;8.80;99.90
40670;DHT22;26355;45.528;9.234;2023-01-30T08:43:03;7.80;99.90
40670;DHT22;26355;45.528;9.234;2023-01-30T08:45:29;8.30;99.90
40670;DHT22;26355;45.528;9.234;2023-01-30T08:48:02;8.90;99.90
40670;DHT22;26355;45.528;9.234;2023-01-30T08:50:29;9.20;99.90
40670;DHT22;26355;45.528;9.234;2023-01-30T08:52:55;9.10;99.90
40670;DHT22;26355;45.528;9.234;2023-01-30T08:55:21;8.90;99.90
40670;DHT22;26355;45.528;9.234;2023-01-30T08:57:47;8.10;99.90
40670;DHT22;26355;45.528;9.234;2023-01-30T09:00:14;9.10;99.90
40670;DHT22;26355;45.528;9.234;2023-01-30T09:02:43;8.90;99.90
40670;DHT22;26355;45.528;9.234;2023-01-30T09:05:08;9.80;99.90
40670;DHT22;26355;45.528;9.234;2023-01-30T09:07:35;9.60;99.90
40670;DHT22;26355;45.528;9.234;2023-01-30T09:10:01;9.10;99.90
40670;DHT22;26355;45.528;9.234;2023-01-30T09:12:26;10.10;99.90
40670;DHT22;26355;45.528;9.234;2023-01-30T09:14:52;8.90;99.90
40670;DHT22;26355;45.528;9.234;2023-01-30T09:17:20;10.10;99.90
40670;DHT22;26355;45.528;9.234;2023-01-30T09:19:45;9.10;99.90
40670;DHT22;26355;45.528;9.234;2023-01-30T09:22:11;10.40;99.90
40670;DHT22;26355;45.528;9.234;2023-01-30T09:24:43;11.70;99.90
40670;DHT22;26355;45.528;9.234;2023-01-30T09:27:08;9.10;99.90
40670;DHT22;26355;45.528;9.234;2023-01-30T09:29:34;10.30;99.90
40670;DHT22;26355;45.528;9.234;2023-01-30T09:31:59;9.90;99.90
40670;DHT22;26355;45.528;9.234;2023-01-30T09:34:26;9.60;99.90
40670;DHT22;26355;45.528;9.234;2023-01-30T09:36:56;10.10;99.90
40670;DHT22;26355;45.528;9.234;2023-01-30T09:39:24;11.50;99.90
40670;DHT22;26355;45.528;9.234;2023-01-30T09:42:14;10.40;99.90
40670;DHT22;26355;45.528;9.234;2023-01-30T09:53:19;11.30;98.50
40670;DHT22;26355;45.528;9.234;2023-01-30T09:55:46;11.60;98.90
40670;DHT22;26355;45.528;9.234;2023-01-30T09:58:20;12.00;98.90
40670;DHT22;26355;45.528;9.234;2023-01-30T10:00:48;12.10;98.00
40670;DHT22;26355;45.528;9.234;2023-01-30T10:03:35;12.60;98.10
40670;DHT22;26355;45.528;9.234;2023-01-30T10:06:12;12.50;97.20
40670;DHT22;26355;45.528;9.234;2023-01-30T10:08:49;12.70;97.30
40670;DHT22;26355;45.528;9.234;2023-01-30T10:27:29;13.90;95.20
40670;DHT22;26355;45.528;9.234;2023-01-30T10:29:58;13.50;95.20
40670;DHT22;26355;45.528;9.234;2023-01-30T10:32:31;13.30;95.20
40670;DHT22;26355;45.528;9.234;2023-01-30T10:35:05;13.50;94.80
40670;DHT22;26355;45.528;9.234;2023-01-30T10:40:27;13.60;93.90
40670;DHT22;26355;45.528;9.234;2023-01-30T10:43:19;13.70;93.70
40670;DHT22;26355;45.528;9.234;2023-01-30T11:00:01;16.10;90.20
40670;DHT22;26355;45.528;9.234;2023-01-30T11:05:00;19.20;86.90
40670;DHT22;26355;45.528;9.234;2023-01-30T11:07:30;19.90;84.00
40670;DHT22;26355;45.528;9.234;2023-01-30T11:09:58;20.40;81.30
40670;DHT22;26355;45.528;9.234;2023-01-30T11:12:24;20.60;79.70
40670;DHT22;26355;45.528;9.234;2023-01-30T11:14:57;20.90;74.00
40670;DHT22;26355;45.528;9.234;2023-01-30T11:17:35;22.00;77.30
40670;DHT22;26355;45.528;9.234;2023-01-30T11:20:14;22.60;71.20
40670;DHT22;26355;45.528;9.234;2023-01-30T11:22:52;23.50;69.20
40670;DHT22;26355;45.528;9.234;2023-01-30T11:25:24;23.90;67.60
40670;DHT22;26355;45.528;9.234;2023-01-30T11:27:54;24.40;68.80
40670;DHT22;26355;45.528;9.234;2023-01-30T11:30:22;24.80;66.20
40670;DHT22;26355;45.528;9.234;2023-01-30T11:32:50;25.30;65.60
40670;DHT22;26355;45.528;9.234;2023-01-30T11:35:29;25.00;64.60
40670;DHT22;26355;45.528;9.234;2023-01-30T11:38:11;24.60;64.10
40670;DHT22;26355;45.528;9.234;2023-01-30T11:40:38;24.00;61.20
40670;DHT22;26355;45.528;9.234;2023-01-30T11:43:11;23.70;63.80
40670;DHT22;26355;45.528;9.234;2023-01-30T11:45:44;24.10;62.70
40670;DHT22;26355;45.528;9.234;2023-01-30T11:48:19;24.40;62.20
40670;DHT22;26355;45.528;9.234;2023-01-30T11:50:48;24.80;61.40
40670;DHT22;26355;45.528;9.234;2023-01-30T11:53:37;25.10;62.00
40670;DHT22;26355;45.528;9.234;2023-01-30T11:56:16;25.50;60.70
40670;DHT22;26355;45.528;9.234;2023-01-30T11:58:54;26.10;60.40
40670;DHT22;26355;45.528;9.234;2023-01-30T12:01:28;26.60;59.60
40670;DHT22;26355;45.528;9.234;2023-01-30T12:03:56;27.30;59.00
40670;DHT22;26355;45.528;9.234;2023-01-30T12:06:27;27.70;58.60
40670;DHT22;26355;45.528;9.234;2023-01-30T12:08:55;28.00;57.50
40670;DHT22;26355;45.528;9.234;2023-01-30T12:14:52;28.90;56.20
40670;DHT22;26355;45.528;9.234;2023-01-30T12:22:17;23.70;57.00
40670;DHT22;26355;45.528;9.234;2023-01-30T12:25:02;22.20;59.20
40670;DHT22;26355;45.528;9.234;2023-01-30T12:27:49;20.90;60.80
40670;DHT22;26355;45.528;9.234;2023-01-30T12:30:42;19.80;62.50
40670;DHT22;26355;45.528;9.234;2023-01-30T12:33:11;18.90;63.80
40670;DHT22;26355;45.528;9.234;2023-01-30T12:36:29;18.20;65.40
40670;DHT22;26355;45.528;9.234;2023-01-30T12:41:52;17.10;68.30
40670;DHT22;26355;45.528;9.234;2023-01-30T12:45:10;16.70;69.50
40670;DHT22;26355;45.528;9.234;2023-01-30T12:47:36;16.40;70.20
40670;DHT22;26355;45.528;9.234;2023-01-30T12:50:22;16.10;71.40
40670;DHT22;26355;45.528;9.234;2023-01-30T12:59:29;15.60;73.80
40670;DHT22;26355;45.528;9.234;2023-01-30T13:15:24;14.80;80.60
40670;DHT22;26355;45.528;9.234;2023-01-30T13:18:19;14.60;81.10
40670;DHT22;26355;45.528;9.234;2023-01-30T13:20:51;14.60;82.40
40670;DHT22;26355;45.528;9.234;2023-01-30T13:25:58;14.50;83.60
40670;DHT22;26355;45.528;9.234;2023-01-30T13:28:32;14.50;84.20
40670;DHT22;26355;45.528;9.234;2023-01-30T13:30:59;14.40;85.00
40670;DHT22;26355;45.528;9.234;2023-01-30T13:33:29;14.20;86.00
40670;DHT22;26355;45.528;9.234;2023-01-30T13:41:15;14.30;88.00
40670;DHT22;26355;45.528;9.234;2023-01-30T13:43:47;14.10;88.20
40670;DHT22;26355;45.528;9.234;2023-01-30T13:46:25;14.10;88.90
40670;DHT22;26355;45.528;9.234;2023-01-30T13:51:52;13.90;89.40
40670;DHT22;26355;45.528;9.234;2023-01-30T13:57:07;13.90;90.60
40670;DHT22;26355;45.528;9.234;2023-01-30T14:08:32;13.70;91.50
40670;DHT22;26355;45.528;9.234;2023-01-30T14:11:00;14.10;91.80
40670;DHT22;26355;45.528;9.234;2023-01-30T14:13:26;13.80;91.60
40670;DHT22;26355;45.528;9.234;2023-01-30T14:16:00;13.80;91.80
40670;DHT22;26355;45.528;9.234;2023-01-30T14:18:34;13.90;92.20
40670;DHT22;26355;45.528;9.234;2023-01-30T14:21:22;13.90;92.50
40670;DHT22;26355;45.528;9.234;2023-01-30T14:24:03;14.20;93.00
40670;DHT22;26355;45.528;9.234;2023-01-30T14:32:34;13.60;93.60
40670;DHT22;26355;45.528;9.234;2023-01-30T14:59:21;13.90;94.70
40670;DHT22;26355;45.528;9.234;2023-01-30T15:04:25;13.80;94.50
40670;DHT22;26355;45.528;9.234;2023-01-30T15:06:54;13.70;94.50
40670;DHT22;26355;45.528;9.234;2023-01-30T15:09:23;13.70;94.70
40670;DHT22;26355;45.528;9.234;2023-01-30T15:12:12;13.70;94.80
40670;DHT22;26355;45.528;9.234;2023-01-30T15:20:23;13.80;95.40
40670;DHT22;26355;45.528;9.234;2023-01-30T15:25:36;13.80;95.20
40670;DHT22;26355;45.528;9.234;2023-01-30T15:31:09;13.50;96.20
40670;DHT22;26355;45.528;9.234;2023-01-30T15:33:42;13.60;96.30
40670;DHT22;26355;45.528;9.234;2023-01-30T15:36:25;13.50;96.80
40670;DHT22;26355;45.528;9.234;2023-01-30T15:41:23;13.40;96.90
40670;DHT22;26355;45.528;9.234;2023-01-30T15:47:27;13.30;97.70
40670;DHT22;26355;45.528;9.234;2023-01-30T15:49:58;13.20;98.00
40670;DHT22;26355;45.528;9.234;2023-01-30T15:52:39;13.10;97.70
40670;DHT22;26355;45.528;9.234;2023-01-30T15:55:19;13.20;98.10
40670;DHT22;26355;45.528;9.234;2023-01-30T15:58:01;13.10;98.20
40670;DHT22;26355;45.528;9.234;2023-01-30T16:00:33;12.90;98.20
40670;DHT22;26355;45.528;9.234;2023-01-30T16:03:01;12.90;98.30
40670;DHT22;26355;45.528;9.234;2023-01-30T16:05:28;14.30;98.70
40670;DHT22;26355;45.528;9.234;2023-01-30T16:07:55;12.90;98.40
40670;DHT22;26355;45.528;9.234;2023-01-30T16:10:24;12.90;98.50
40670;DHT22;26355;45.528;9.234;2023-01-30T16:12:51;12.80;98.60
40670;DHT22;26355;45.528;9.234;2023-01-30T16:15:41;12.80;98.70
40670;DHT22;26355;45.528;9.234;2023-01-30T16:21:00;12.70;99.20
40670;DHT22;26355;45.528;9.234;2023-01-30T16:26:45;12.60;99.10
40670;DHT22;26355;45.528;9.234;2023-01-30T16:29:17;12.50;98.90
40670;DHT22;26355;45.528;9.234;2023-01-30T16:31:46;12.60;99.10
40670;DHT22;26355;45.528;9.234;2023-01-30T16:34:24;12.50;98.90
40670;DHT22;26355;45.528;9.234;2023-01-30T16:36:51;12.50;99.40
40670;DHT22;26355;45.528;9.234;2023-01-30T16:39:33;12.20;98.90
40670;DHT22;26355;45.528;9.234;2023-01-30T16:42:01;12.20;99.00
40670;DHT22;26355;45.528;9.234;2023-01-30T16:44:30;12.90;99.10
40670;DHT22;26355;45.528;9.234;2023-01-30T16:47:24;12.00;99.10
40670;DHT22;26355;45.528;9.234;2023-01-30T16:49:52;12.10;99.10
40670;DHT22;26355;45.528;9.234;2023-01-30T16:52:45;12.00;98.80
40670;DHT22;26355;45.528;9.234;2023-01-30T16:55:23;12.00;98.70
40670;DHT22;26355;45.528;9.234;2023-01-30T16:57:54;13.80;99.00
40670;DHT22;26355;45.528;9.234;2023-01-30T17:00:35;11.80;98.40
40670;DHT22;26355;45.528;9.234;2023-01-30T17:03:04;11.80;98.30
40670;DHT22;26355;45.528;9.234;2023-01-30T17:05:38;11.90;98.20
40670;DHT22;26355;45.528;9.234;2023-01-30T17:08:05;11.70;98.00
40670;DHT22;26355;45.528;9.234;2023-01-30T17:13:03;12.50;98.20
40670;DHT22;26355;45.528;9.234;2023-01-30T17:15:31;11.70;97.90
40670;DHT22;26355;45.528;9.234;2023-01-30T17:17:57;11.70;97.80
40670;DHT22;26355;45.528;9.234;2023-01-30T17:20:25;11.60;97.70
40670;DHT22;26355;45.528;9.234;2023-01-30T17:22:53;11.70;97.70
40670;DHT22;26355;45.528;9.234;2023-01-30T17:25:45;11.70;97.60
40670;DHT22;26355;45.528;9.234;2023-01-30T17:28:17;11.60;97.60
40670;DHT22;26355;45.528;9.234;2023-01-30T17:30:46;11.80;97.40
40670;DHT22;26355;45.528;9.234;2023-01-30T17:33:11;12.10;97.30
40670;DHT22;26355;45.528;9.234;2023-01-30T17:35:37;11.90;97.20
40670;DHT22;26355;45.528;9.234;2023-01-30T17:38:03;11.90;97.10
40670;DHT22;26355;45.528;9.234;2023-01-30T17:40:34;12.00;97.10
40670;DHT22;26355;45.528;9.234;2023-01-30T17:43:00;12.00;97.00
40670;DHT22;26355;45.528;9.234;2023-01-30T17:45:26;11.90;96.90
40670;DHT22;26355;45.528;9.234;2023-01-30T17:47:52;12.00;96.80
40670;DHT22;26355;45.528;9.234;2023-01-30T17:50:17;12.20;96.80
40670;DHT22;26355;45.528;9.234;2023-01-30T17:52:43;12.20;96.70
40670;DHT22;26355;45.528;9.234;2023-01-30T17:55:12;12.10;96.60
40670;DHT22;26355;45.528;9.234;2023-01-30T17:57:38;12.00;96.60
40670;DHT22;26355;45.528;9.234;2023-01-30T18:00:06;12.00;96.70
40670;DHT22;26355;45.528;9.234;2023-01-30T18:02:31;12.00;96.70
40670;DHT22;26355;45.528;9.234;2023-01-30T18:04:57;11.80;96.70
40670;DHT22;26355;45.528;9.234;2023-01-30T18:07:26;11.80;96.80
40670;DHT22;26355;45.528;9.234;2023-01-30T18:09:53;11.70;96.80
40670;DHT22;26355;45.528;9.234;2023-01-30T18:12:19;11.80;96.90
40670;DHT22;26355;45.528;9.234;2023-01-30T18:14:44;11.60;97.00
40670;DHT22;26355;45.528;9.234;2023-01-30T18:17:10;11.60;97.10
40670;DHT22;26355;45.528;9.234;2023-01-30T18:19:37;12.30;97.40
40670;DHT22;26355;45.528;9.234;2023-01-30T18:22:02;11.70;97.20
40670;DHT22;26355;45.528;9.234;2023-01-30T18:24:28;11.30;97.10
40670;DHT22;26355;45.528;9.234;2023-01-30T18:26:54;11.60;97.30
40670;DHT22;26355;45.528;9.234;2023-01-30T18:29:20;11.40;97.20
40670;DHT22;26355;45.528;9.234;2023-01-30T18:31:45;11.40;97.30
40670;DHT22;26355;45.528;9.234;2023-01-30T18:34:11;11.70;97.40
40670;DHT22;26355;45.528;9.234;2023-01-30T18:36:37;11.40;97.40
40670;DHT22;26355;45.528;9.234;2023-01-30T18:39:03;11.30;97.40
40670;DHT22;26355;45.528;9.234;2023-01-30T18:41:29;11.20;97.40
40670;DHT22;26355;45.528;9.234;2023-01-30T18:43:57;11.20;97.40
40670;DHT22;26355;45.528;9.234;2023-01-30T18:46:24;11.30;97.50
40670;DHT22;26355;45.528;9.234;2023-01-30T18:48:49;11.50;97.60
40670;DHT22;26355;45.528;9.234;2023-01-30T18:51:21;11.20;97.60
40670;DHT22;26355;45.528;9.234;2023-01-30T18:53:48;11.10;97.60
40670;DHT22;26355;45.528;9.234;2023-01-30T18:56:17;11.10;97.60
40670;DHT22;26355;45.528;9.234;2023-01-30T18:58:43;11.10;97.60
40670;DHT22;26355;45.528;9.234;2023-01-30T19:01:13;11.10;97.60
40670;DHT22;26355;45.528;9.234;2023-01-30T19:03:39;11.20;97.70
40670;DHT22;26355;45.528;9.234;2023-01-30T19:06:06;11.70;97.80
40670;DHT22;26355;45.528;9.234;2023-01-30T19:08:32;10.90;97.60